sensor_id;sensor_type;location;lat;lon;timestamp;temperature;humidity
25248;DHT22;13191;47.472;11.214;2022-07-23T00:01:15;18.90;99.90
25248;DHT22;13191;47.472;11.214;2022-07-23T00:03:40;19.00;99.90
25248;DHT22;13191;47.472;11.214;2022-07-23T00:06:06;19.00;99.90
25248;DHT22;13191;47.472;11.214;2022-07-23T00:08:32;18.90;99.90
25248;DHT22;13191;47.472;11.214;2022-07-23T00:10:57;18.80;99.90
25248;DHT22;13191;47.472;11.214;2022-07-23T00:13:22;18.80;99.90
25248;DHT22;13191;47.472;11.214;2022-07-23T00:15:48;18.80;99.90
25248;DHT22;13191;47.472;11.214;2022-07-23T00:18:13;18.80;99.90
25248;DHT22;13191;47.472;11.214;2022-07-23T00:20:39;18.80;99.90
25248;DHT22;13191;47.472;11.214;2022-07-23T00:23:05;18.80;99.90
25248;DHT22;13191;47.472;11.214;2022-07-23T00:25:30;18.80;99.90
25248;DHT22;13191;47.472;11.214;2022-07-23T00:27:57;18.70;99.90
25248;DHT22;13191;47.472;11.214;2022-07-23T00:30:23;18.70;99.90
25248;DHT22;13191;47.472;11.214;2022-07-23T00:32:51;18.70;99.90
25248;DHT22;13191;47.472;11.214;2022-07-23T00:35:20;18.70;99.90
25248;DHT22;13191;47.472;11.214;2022-07-23T00:37:46;18.70;99.90
25248;DHT22;13191;47.472;11.214;2022-07-23T00:40:12;18.70;99.90
25248;DHT22;13191;47.472;11.214;2022-07-23T00:42:38;18.60;99.90
25248;DHT22;13191;47.472;11.214;2022-07-23T00:45:04;18.60;99.90
25248;DHT22;13191;47.472;11.214;2022-07-23T00:47:30;18.40;99.90
25248;DHT22;13191;47.472;11.214;2022-07-23T00:49:56;18.30;99.90
25248;DHT22;13191;47.472;11.214;2022-07-23T00:52:21;18.30;99.90
25248;DHT22;13191;47.472;11.214;2022-07-23T00:54:48;18.30;99.90
25248;DHT22;13191;47.472;11.214;2022-07-23T00:57:13;18.20;99.90
25248;DHT22;13191;47.472;11.214;2022-07-23T00:59:40;18.20;99.90
25248;DHT22;13191;47.472;11.214;2022-07-23T01:02:06;18.20;99.90
25248;DHT22;13191;47.472;11.214;2022-07-23T01:04:31;18.10;99.90
25248;DHT22;13191;47.472;11.214;2022-07-23T01:06:57;18.10;99.90
25248;DHT22;13191;47.472;11.214;2022-07-23T01:09:22;18.00;99.90
25248;DHT22;13191;47.472;11.214;2022-07-23T01:11:48;18.00;99.90
25248;DHT22;13191;47.472;11.214;2022-07-23T01:14:17;18.00;99.90
25248;DHT22;13191;47.472;11.214;2022-07-23T01:16:45;18.10;99.90
25248;DHT22;13191;47.472;11.214;2022-07-23T01:19:11;18.00;99.90
25248;DHT22;13191;47.472;11.214;2022-07-23T01:21:41;18.00;99.90
25248;DHT22;13191;47.472;11.214;2022-07-23T01:24:07;18.00;99.90
25248;DHT22;13191;47.472;11.214;2022-07-23T01:26:33;18.00;99.90
25248;DHT22;13191;47.472;11.214;2022-07-23T01:28:58;18.00;99.90
25248;DHT22;13191;47.472;11.214;2022-07-23T01:31:24;18.10;99.90
25248;DHT22;13191;47.472;11.214;2022-07-23T01:33:50;18.00;99.90
25248;DHT22;13191;47.472;11.214;2022-07-23T01:36:16;18.10;99.90
25248;DHT22;13191;47.472;11.214;2022-07-23T01:38:41;18.10;99.90
25248;DHT22;13191;47.472;11.214;2022-07-23T01:41:07;18.10;99.90
25248;DHT22;13191;47.472;11.214;2022-07-23T01:43:32;18.10;99.90
25248;DHT22;13191;47.472;11.214;2022-07-23T01:45:58;18.10;99.90
25248;DHT22;13191;47.472;11.214;2022-07-23T01:48:23;18.10;99.90
25248;DHT22;13191;47.472;11.214;2022-07-23T01:50:49;18.20;99.90
25248;DHT22;13191;47.472;11.214;2022-07-23T01:53:14;18.20;99.90
25248;DHT22;13191;47.472;11.214;2022-07-23T01:55:41;18.20;99.90
25248;DHT22;13191;47.472;11.214;2022-07-23T01:58:06;18.20;99.90
25248;DHT22;13191;47.472;11.214;2022-07-23T02:00:32;18.20;99.90
25248;DHT22;13191;47.472;11.214;2022-07-23T02:02:57;18.20;99.90
25248;DHT22;13191;47.472;11.214;2022-07-23T02:05:26;18.20;99.90
25248;DHT22;13191;47.472;11.214;2022-07-23T02:07:54;18.20;99.90
25248;DHT22;13191;47.472;11.214;2022-07-23T02:10:20;18.30;99.90
25248;DHT22;13191;47.472;11.214;2022-07-23T02:12:46;18.30;99.90
25248;DHT22;13191;47.472;11.214;2022-07-23T02:15:12;18.30;99.90
25248;DHT22;13191;47.472;11.214;2022-07-23T02:17:37;18.30;99.90
25248;DHT22;13191;47.472;11.214;2022-07-23T02:20:04;18.30;99.90
25248;DHT22;13191;47.472;11.214;2022-07-23T02:22:30;18.30;99.90
25248;DHT22;13191;47.472;11.214;2022-07-23T02:24:55;18.30;99.90
25248;DHT22;13191;47.472;11.214;2022-07-23T02:27:21;18.30;99.90
25248;DHT22;13191;47.472;11.214;2022-07-23T02:29:47;18.20;99.90
25248;DHT22;13191;47.472;11.214;2022-07-23T02:32:12;18.10;99.90
25248;DHT22;13191;47.472;11.214;2022-07-23T02:34:38;18.10;99.90
25248;DHT22;13191;47.472;11.214;2022-07-23T02:37:03;18.00;99.90
25248;DHT22;13191;47.472;11.214;2022-07-23T02:39:29;18.00;99.90
25248;DHT22;13191;47.472;11.214;2022-07-23T02:41:54;18.00;99.90
25248;DHT22;13191;47.472;11.214;2022-07-23T02:44:20;17.90;99.90
25248;DHT22;13191;47.472;11.214;2022-07-23T02:46:45;17.70;99.90
25248;DHT22;13191;47.472;11.214;2022-07-23T02:49:11;17.60;99.90
25248;DHT22;13191;47.472;11.214;2022-07-23T02:51:36;17.60;99.90
25248;DHT22;13191;47.472;11.214;2022-07-23T02:54:02;17.60;99.90
25248;DHT22;13191;47.472;11.214;2022-07-23T02:56:28;17.60;99.90
25248;DHT22;13191;47.472;11.214;2022-07-23T02:58:53;17.60;99.90
25248;DHT22;13191;47.472;11.214;2022-07-23T03:01:19;17.60;99.90
25248;DHT22;13191;47.472;11.214;2022-07-23T03:03:44;17.60;99.90
25248;DHT22;13191;47.472;11.214;2022-07-23T03:06:10;17.70;99.90
25248;DHT22;13191;47.472;11.214;2022-07-23T03:08:35;17.60;99.90
25248;DHT22;13191;47.472;11.214;2022-07-23T03:11:01;17.60;99.90
25248;DHT22;13191;47.472;11.214;2022-07-23T03:13:27;17.50;99.90
25248;DHT22;13191;47.472;11.214;2022-07-23T03:15:53;17.40;99.90
25248;DHT22;13191;47.472;11.214;2022-07-23T03:18:18;17.40;99.90
25248;DHT22;13191;47.472;11.214;2022-07-23T03:20:44;17.40;99.90
25248;DHT22;13191;47.472;11.214;2022-07-23T03:23:09;17.40;99.90
25248;DHT22;13191;47.472;11.214;2022-07-23T03:25:35;17.40;99.90
25248;DHT22;13191;47.472;11.214;2022-07-23T03:28:00;17.40;99.90
25248;DHT22;13191;47.472;11.214;2022-07-23T03:30:26;17.50;99.90
25248;DHT22;13191;47.472;11.214;2022-07-23T03:32:51;17.60;99.90
25248;DHT22;13191;47.472;11.214;2022-07-23T03:35:17;17.70;99.90
25248;DHT22;13191;47.472;11.214;2022-07-23T03:37:42;17.80;99.90
25248;DHT22;13191;47.472;11.214;2022-07-23T03:40:08;17.80;99.90
25248;DHT22;13191;47.472;11.214;2022-07-23T03:42:34;17.70;99.90
25248;DHT22;13191;47.472;11.214;2022-07-23T03:44:59;17.60;99.90
25248;DHT22;13191;47.472;11.214;2022-07-23T03:47:26;17.60;99.90
25248;DHT22;13191;47.472;11.214;2022-07-23T03:49:51;17.50;99.90
25248;DHT22;13191;47.472;11.214;2022-07-23T03:52:17;17.50;99.90
25248;DHT22;13191;47.472;11.214;2022-07-23T03:54:42;17.50;99.90
25248;DHT22;13191;47.472;11.214;2022-07-23T03:57:08;17.50;99.90
25248;DHT22;13191;47.472;11.214;2022-07-23T03:59:33;17.50;99.90
25248;DHT22;13191;47.472;11.214;2022-07-23T04:01:59;17.50;99.90
25248;DHT22;13191;47.472;11.214;2022-07-23T04:04:24;17.50;99.90
25248;DHT22;13191;47.472;11.214;2022-07-23T04:06:50;17.50;99.90
25248;DHT22;13191;47.472;11.214;2022-07-23T04:09:15;17.70;99.90
25248;DHT22;13191;47.472;11.214;2022-07-23T04:11:41;17.80;99.90
25248;DHT22;13191;47.472;11.214;2022-07-23T04:14:07;17.90;99.90
25248;DHT22;13191;47.472;11.214;2022-07-23T04:16:32;17.90;99.90
25248;DHT22;13191;47.472;11.214;2022-07-23T04:18:58;18.00;99.90
25248;DHT22;13191;47.472;11.214;2022-07-23T04:21:24;18.10;99.90
25248;DHT22;13191;47.472;11.214;2022-07-23T04:23:50;18.10;99.90
25248;DHT22;13191;47.472;11.214;2022-07-23T04:26:15;18.10;99.90
25248;DHT22;13191;47.472;11.214;2022-07-23T04:28:41;18.00;99.90
25248;DHT22;13191;47.472;11.214;2022-07-23T04:31:07;17.90;99.90
25248;DHT22;13191;47.472;11.214;2022-07-23T04:33:32;17.80;99.90
25248;DHT22;13191;47.472;11.214;2022-07-23T04:35:58;17.70;99.90
25248;DHT22;13191;47.472;11.214;2022-07-23T04:38:24;17.60;99.90
25248;DHT22;13191;47.472;11.214;2022-07-23T04:40:49;17.60;99.90
25248;DHT22;13191;47.472;11.214;2022-07-23T04:43:15;17.70;99.90
25248;DHT22;13191;47.472;11.214;2022-07-23T04:45:41;17.70;99.90
25248;DHT22;13191;47.472;11.214;2022-07-23T04:48:06;17.80;99.90
25248;DHT22;13191;47.472;11.214;2022-07-23T04:50:32;17.80;99.90
25248;DHT22;13191;47.472;11.214;2022-07-23T04:52:58;17.80;99.90
25248;DHT22;13191;47.472;11.214;2022-07-23T04:55:24;17.70;99.90
25248;DHT22;13191;47.472;11.214;2022-07-23T04:57:49;17.60;99.90
25248;DHT22;13191;47.472;11.214;2022-07-23T05:00:15;17.60;99.90
25248;DHT22;13191;47.472;11.214;2022-07-23T05:02:41;17.70;99.90
25248;DHT22;13191;47.472;11.214;2022-07-23T05:05:07;17.70;99.90
25248;DHT22;13191;47.472;11.214;2022-07-23T05:07:32;17.70;99.90
25248;DHT22;13191;47.472;11.214;2022-07-23T05:09:58;17.60;99.90
25248;DHT22;13191;47.472;11.214;2022-07-23T05:12:23;17.60;99.90
25248;DHT22;13191;47.472;11.214;2022-07-23T05:14:49;17.40;99.90
25248;DHT22;13191;47.472;11.214;2022-07-23T05:17:15;17.20;99.90
25248;DHT22;13191;47.472;11.214;2022-07-23T05:19:41;17.20;99.90
25248;DHT22;13191;47.472;11.214;2022-07-23T05:22:06;17.20;99.90
25248;DHT22;13191;47.472;11.214;2022-07-23T05:24:32;17.30;99.90
25248;DHT22;13191;47.472;11.214;2022-07-23T05:26:57;17.30;99.90
25248;DHT22;13191;47.472;11.214;2022-07-23T05:29:23;17.30;99.90
25248;DHT22;13191;47.472;11.214;2022-07-23T05:31:48;17.30;99.90
25248;DHT22;13191;47.472;11.214;2022-07-23T05:34:14;17.30;99.90
25248;DHT22;13191;47.472;11.214;2022-07-23T05:36:39;17.30;99.90
25248;DHT22;13191;47.472;11.214;2022-07-23T05:39:05;17.40;99.90
25248;DHT22;13191;47.472;11.214;2022-07-23T05:41:31;17.40;99.90
25248;DHT22;13191;47.472;11.214;2022-07-23T05:43:56;17.40;99.90
25248;DHT22;13191;47.472;11.214;2022-07-23T05:46:22;17.50;99.90
25248;DHT22;13191;47.472;11.214;2022-07-23T05:48:47;17.50;99.90
25248;DHT22;13191;47.472;11.214;2022-07-23T05:51:25;17.50;99.90
25248;DHT22;13191;47.472;11.214;2022-07-23T05:53:51;17.50;99.90
25248;DHT22;13191;47.472;11.214;2022-07-23T05:56:17;17.40;99.90
25248;DHT22;13191;47.472;11.214;2022-07-23T05:58:43;17.30;99.90
25248;DHT22;13191;47.472;11.214;2022-07-23T06:01:09;17.40;99.90
25248;DHT22;13191;47.472;11.214;2022-07-23T06:03:37;17.40;99.90
25248;DHT22;13191;47.472;11.214;2022-07-23T06:06:03;17.30;99.90
25248;DHT22;13191;47.472;11.214;2022-07-23T06:08:29;17.30;99.90
25248;DHT22;13191;47.472;11.214;2022-07-23T06:10:54;17.30;99.90
25248;DHT22;13191;47.472;11.214;2022-07-23T06:13:20;17.20;99.90
25248;DHT22;13191;47.472;11.214;2022-07-23T06:15:46;17.30;99.90
25248;DHT22;13191;47.472;11.214;2022-07-23T06:18:12;17.30;99.90
25248;DHT22;13191;47.472;11.214;2022-07-23T06:20:37;17.40;99.90
25248;DHT22;13191;47.472;11.214;2022-07-23T06:23:04;17.40;99.90
25248;DHT22;13191;47.472;11.214;2022-07-23T06:25:30;17.30;99.90
25248;DHT22;13191;47.472;11.214;2022-07-23T06:27:55;17.20;99.90
25248;DHT22;13191;47.472;11.214;2022-07-23T06:30:21;17.20;99.90
25248;DHT22;13191;47.472;11.214;2022-07-23T06:32:47;17.10;99.90
25248;DHT22;13191;47.472;11.214;2022-07-23T06:35:13;17.10;99.90
25248;DHT22;13191;47.472;11.214;2022-07-23T06:37:38;17.20;99.90
25248;DHT22;13191;47.472;11.214;2022-07-23T06:40:04;17.20;99.90
25248;DHT22;13191;47.472;11.214;2022-07-23T06:42:30;17.30;99.90
25248;DHT22;13191;47.472;11.214;2022-07-23T06:44:55;17.40;99.90
25248;DHT22;13191;47.472;11.214;2022-07-23T06:47:21;17.50;99.90
25248;DHT22;13191;47.472;11.214;2022-07-23T06:49:47;17.50;99.90
25248;DHT22;13191;47.472;11.214;2022-07-23T06:52:12;17.60;99.90
25248;DHT22;13191;47.472;11.214;2022-07-23T06:54:38;17.70;99.90
25248;DHT22;13191;47.472;11.214;2022-07-23T06:57:03;17.80;99.90
25248;DHT22;13191;47.472;11.214;2022-07-23T06:59:29;17.80;99.90
25248;DHT22;13191;47.472;11.214;2022-07-23T07:01:54;17.90;99.90
25248;DHT22;13191;47.472;11.214;2022-07-23T07:04:20;18.00;99.90
25248;DHT22;13191;47.472;11.214;2022-07-23T07:06:46;18.00;99.90
25248;DHT22;13191;47.472;11.214;2022-07-23T07:09:11;17.90;99.90
25248;DHT22;13191;47.472;11.214;2022-07-23T07:11:37;17.90;99.90
25248;DHT22;13191;47.472;11.214;2022-07-23T07:14:02;17.90;99.90
25248;DHT22;13191;47.472;11.214;2022-07-23T07:16:29;17.90;99.90
25248;DHT22;13191;47.472;11.214;2022-07-23T07:18:55;18.00;99.90
25248;DHT22;13191;47.472;11.214;2022-07-23T07:21:20;18.00;99.90
25248;DHT22;13191;47.472;11.214;2022-07-23T07:23:46;18.10;99.90
25248;DHT22;13191;47.472;11.214;2022-07-23T07:26:11;18.10;99.90
25248;DHT22;13191;47.472;11.214;2022-07-23T07:28:38;18.10;99.90
25248;DHT22;13191;47.472;11.214;2022-07-23T07:31:04;18.00;99.90
25248;DHT22;13191;47.472;11.214;2022-07-23T07:33:29;18.10;99.90
25248;DHT22;13191;47.472;11.214;2022-07-23T07:35:55;18.10;99.90
25248;DHT22;13191;47.472;11.214;2022-07-23T07:38:21;18.00;99.90
25248;DHT22;13191;47.472;11.214;2022-07-23T07:40:46;18.00;99.90
25248;DHT22;13191;47.472;11.214;2022-07-23T07:43:12;18.00;99.90
25248;DHT22;13191;47.472;11.214;2022-07-23T07:45:37;18.00;99.90
25248;DHT22;13191;47.472;11.214;2022-07-23T07:48:04;18.00;99.90
25248;DHT22;13191;47.472;11.214;2022-07-23T07:50:29;18.10;99.90
25248;DHT22;13191;47.472;11.214;2022-07-23T07:52:55;18.10;99.90
25248;DHT22;13191;47.472;11.214;2022-07-23T07:55:21;18.20;99.90
25248;DHT22;13191;47.472;11.214;2022-07-23T07:57:46;18.20;99.90
25248;DHT22;13191;47.472;11.214;2022-07-23T08:00:12;18.20;99.90
25248;DHT22;13191;47.472;11.214;2022-07-23T08:02:48;18.30;99.90
25248;DHT22;13191;47.472;11.214;2022-07-23T08:05:18;18.40;99.90
25248;DHT22;13191;47.472;11.214;2022-07-23T08:07:44;18.40;99.90
25248;DHT22;13191;47.472;11.214;2022-07-23T08:10:10;18.50;99.90
25248;DHT22;13191;47.472;11.214;2022-07-23T08:12:43;18.40;99.90
25248;DHT22;13191;47.472;11.214;2022-07-23T08:15:14;18.50;99.90
25248;DHT22;13191;47.472;11.214;2022-07-23T08:17:42;18.50;99.90
25248;DHT22;13191;47.472;11.214;2022-07-23T08:20:09;18.60;99.90
25248;DHT22;13191;47.472;11.214;2022-07-23T08:22:53;18.60;99.90
25248;DHT22;13191;47.472;11.214;2022-07-23T08:25:24;18.70;99.90
25248;DHT22;13191;47.472;11.214;2022-07-23T08:27:50;18.80;99.90
25248;DHT22;13191;47.472;11.214;2022-07-23T08:30:17;18.90;99.90
25248;DHT22;13191;47.472;11.214;2022-07-23T08:32:56;19.00;99.90
25248;DHT22;13191;47.472;11.214;2022-07-23T08:35:23;19.00;99.90
25248;DHT22;13191;47.472;11.214;2022-07-23T08:37:49;19.10;99.90
25248;DHT22;13191;47.472;11.214;2022-07-23T08:40:15;19.10;99.90
25248;DHT22;13191;47.472;11.214;2022-07-23T08:42:40;19.20;99.90
25248;DHT22;13191;47.472;11.214;2022-07-23T08:45:07;19.30;99.90
25248;DHT22;13191;47.472;11.214;2022-07-23T08:47:36;19.40;99.90
25248;DHT22;13191;47.472;11.214;2022-07-23T08:50:02;19.50;99.90
25248;DHT22;13191;47.472;11.214;2022-07-23T08:52:30;19.50;99.90
25248;DHT22;13191;47.472;11.214;2022-07-23T08:54:56;19.60;99.90
25248;DHT22;13191;47.472;11.214;2022-07-23T08:57:22;19.80;99.90
25248;DHT22;13191;47.472;11.214;2022-07-23T08:59:48;19.90;99.90
25248;DHT22;13191;47.472;11.214;2022-07-23T09:02:13;19.90;99.90
25248;DHT22;13191;47.472;11.214;2022-07-23T09:04:39;20.00;99.90
25248;DHT22;13191;47.472;11.214;2022-07-23T09:07:05;20.10;99.90
25248;DHT22;13191;47.472;11.214;2022-07-23T09:09:30;20.10;99.90
25248;DHT22;13191;47.472;11.214;2022-07-23T09:14:44;20.20;99.90
25248;DHT22;13191;47.472;11.214;2022-07-23T09:17:16;20.30;99.90
25248;DHT22;13191;47.472;11.214;2022-07-23T09:19:43;20.30;99.90
25248;DHT22;13191;47.472;11.214;2022-07-23T09:22:26;20.30;99.90
25248;DHT22;13191;47.472;11.214;2022-07-23T09:25:09;20.40;99.90
25248;DHT22;13191;47.472;11.214;2022-07-23T09:27:53;20.40;99.90
25248;DHT22;13191;47.472;11.214;2022-07-23T09:30:21;20.50;99.90
25248;DHT22;13191;47.472;11.214;2022-07-23T09:33:10;20.50;99.90
25248;DHT22;13191;47.472;11.214;2022-07-23T09:35:55;20.60;99.90
25248;DHT22;13191;47.472;11.214;2022-07-23T09:38:24;20.70;99.90
25248;DHT22;13191;47.472;11.214;2022-07-23T09:41:09;20.80;99.90
25248;DHT22;13191;47.472;11.214;2022-07-23T09:43:36;20.90;99.90
25248;DHT22;13191;47.472;11.214;2022-07-23T09:46:22;20.90;99.90
25248;DHT22;13191;47.472;11.214;2022-07-23T09:48:52;21.00;99.90
25248;DHT22;13191;47.472;11.214;2022-07-23T09:51:18;21.10;99.90
25248;DHT22;13191;47.472;11.214;2022-07-23T09:53:53;21.20;99.90
25248;DHT22;13191;47.472;11.214;2022-07-23T09:56:20;21.30;99.90
25248;DHT22;13191;47.472;11.214;2022-07-23T09:58:50;21.40;99.90
25248;DHT22;13191;47.472;11.214;2022-07-23T10:01:17;21.40;99.90
25248;DHT22;13191;47.472;11.214;2022-07-23T10:03:43;21.40;99.90
25248;DHT22;13191;47.472;11.214;2022-07-23T10:06:13;21.50;99.90
25248;DHT22;13191;47.472;11.214;2022-07-23T10:08:44;21.50;99.90
25248;DHT22;13191;47.472;11.214;2022-07-23T10:11:13;21.60;99.90
25248;DHT22;13191;47.472;11.214;2022-07-23T10:13:40;21.60;99.90
25248;DHT22;13191;47.472;11.214;2022-07-23T10:16:19;21.70;99.90
25248;DHT22;13191;47.472;11.214;2022-07-23T10:18:46;21.80;99.90
25248;DHT22;13191;47.472;11.214;2022-07-23T10:21:16;21.90;99.90
25248;DHT22;13191;47.472;11.214;2022-07-23T10:23:51;21.90;99.90
25248;DHT22;13191;47.472;11.214;2022-07-23T10:26:40;21.90;99.90
25248;DHT22;13191;47.472;11.214;2022-07-23T10:32:08;22.00;99.90
25248;DHT22;13191;47.472;11.214;2022-07-23T10:35:13;22.10;99.90
25248;DHT22;13191;47.472;11.214;2022-07-23T10:37:47;22.20;99.90
25248;DHT22;13191;47.472;11.214;2022-07-23T10:40:20;22.30;99.90
25248;DHT22;13191;47.472;11.214;2022-07-23T10:42:50;22.40;99.90
25248;DHT22;13191;47.472;11.214;2022-07-23T10:45:28;22.50;99.90
25248;DHT22;13191;47.472;11.214;2022-07-23T10:47:55;22.60;99.90
25248;DHT22;13191;47.472;11.214;2022-07-23T10:50:26;22.70;99.90
25248;DHT22;13191;47.472;11.214;2022-07-23T10:57:57;22.90;99.90
25248;DHT22;13191;47.472;11.214;2022-07-23T11:00:28;23.00;99.90
25248;DHT22;13191;47.472;11.214;2022-07-23T11:02:56;23.00;99.90
25248;DHT22;13191;47.472;11.214;2022-07-23T11:05:42;23.10;99.90
25248;DHT22;13191;47.472;11.214;2022-07-23T11:10:37;23.20;99.90
25248;DHT22;13191;47.472;11.214;2022-07-23T11:16:11;23.30;99.90
25248;DHT22;13191;47.472;11.214;2022-07-23T11:24:15;23.40;99.90
25248;DHT22;13191;47.472;11.214;2022-07-23T11:26:47;23.50;99.90
25248;DHT22;13191;47.472;11.214;2022-07-23T11:31:56;23.50;99.90
25248;DHT22;13191;47.472;11.214;2022-07-23T11:34:31;23.60;99.90
25248;DHT22;13191;47.472;11.214;2022-07-23T11:36:58;23.70;99.90
25248;DHT22;13191;47.472;11.214;2022-07-23T11:39:26;23.70;99.90
25248;DHT22;13191;47.472;11.214;2022-07-23T11:41:52;23.90;99.90
25248;DHT22;13191;47.472;11.214;2022-07-23T11:44:29;23.90;99.90
25248;DHT22;13191;47.472;11.214;2022-07-23T11:47:02;24.00;99.90
25248;DHT22;13191;47.472;11.214;2022-07-23T11:49:29;24.00;99.90
25248;DHT22;13191;47.472;11.214;2022-07-23T11:52:09;24.10;99.90
25248;DHT22;13191;47.472;11.214;2022-07-23T11:54:49;24.20;99.90
25248;DHT22;13191;47.472;11.214;2022-07-23T11:57:15;24.20;99.90
25248;DHT22;13191;47.472;11.214;2022-07-23T11:59:42;24.30;99.90
25248;DHT22;13191;47.472;11.214;2022-07-23T12:02:08;24.40;99.90
25248;DHT22;13191;47.472;11.214;2022-07-23T12:04:45;24.50;99.90
25248;DHT22;13191;47.472;11.214;2022-07-23T12:07:36;24.70;99.90
25248;DHT22;13191;47.472;11.214;2022-07-23T12:10:23;24.80;99.90
25248;DHT22;13191;47.472;11.214;2022-07-23T12:12:50;25.00;99.90
25248;DHT22;13191;47.472;11.214;2022-07-23T12:15:19;25.10;99.90
25248;DHT22;13191;47.472;11.214;2022-07-23T12:17:46;25.20;99.90
25248;DHT22;13191;47.472;11.214;2022-07-23T12:20:14;25.40;99.90
25248;DHT22;13191;47.472;11.214;2022-07-23T12:22:43;25.50;99.90
25248;DHT22;13191;47.472;11.214;2022-07-23T12:25:15;25.60;99.90
25248;DHT22;13191;47.472;11.214;2022-07-23T12:27:42;25.60;99.90
25248;DHT22;13191;47.472;11.214;2022-07-23T12:30:21;25.60;99.90
25248;DHT22;13191;47.472;11.214;2022-07-23T12:32:48;25.70;99.90
25248;DHT22;13191;47.472;11.214;2022-07-23T12:35:17;25.80;99.90
25248;DHT22;13191;47.472;11.214;2022-07-23T12:37:47;25.80;99.90
25248;DHT22;13191;47.472;11.214;2022-07-23T12:42:47;26.00;99.90
25248;DHT22;13191;47.472;11.214;2022-07-23T12:50:40;26.40;99.90
25248;DHT22;13191;47.472;11.214;2022-07-23T12:53:16;26.50;99.90
25248;DHT22;13191;47.472;11.214;2022-07-23T12:55:43;26.60;99.90
25248;DHT22;13191;47.472;11.214;2022-07-23T12:58:12;26.70;99.90
25248;DHT22;13191;47.472;11.214;2022-07-23T13:00:54;26.80;99.90
25248;DHT22;13191;47.472;11.214;2022-07-23T13:03:24;26.90;99.90
25248;DHT22;13191;47.472;11.214;2022-07-23T13:05:50;27.10;99.90
25248;DHT22;13191;47.472;11.214;2022-07-23T13:08:16;27.20;99.90
25248;DHT22;13191;47.472;11.214;2022-07-23T13:10:41;27.30;99.90
25248;DHT22;13191;47.472;11.214;2022-07-23T13:13:10;27.40;99.90
25248;DHT22;13191;47.472;11.214;2022-07-23T13:15:36;27.60;99.90
25248;DHT22;13191;47.472;11.214;2022-07-23T13:18:01;27.60;99.90
25248;DHT22;13191;47.472;11.214;2022-07-23T13:20:27;27.70;99.90
25248;DHT22;13191;47.472;11.214;2022-07-23T13:22:53;27.70;99.90
25248;DHT22;13191;47.472;11.214;2022-07-23T13:25:18;27.80;99.90
25248;DHT22;13191;47.472;11.214;2022-07-23T13:27:44;27.80;99.90
25248;DHT22;13191;47.472;11.214;2022-07-23T13:30:10;27.90;99.90
25248;DHT22;13191;47.472;11.214;2022-07-23T13:32:36;27.90;99.90
25248;DHT22;13191;47.472;11.214;2022-07-23T13:35:04;27.90;99.90
25248;DHT22;13191;47.472;11.214;2022-07-23T13:37:30;27.90;99.90
25248;DHT22;13191;47.472;11.214;2022-07-23T13:39:55;27.90;99.90
25248;DHT22;13191;47.472;11.214;2022-07-23T13:42:21;27.80;99.90
25248;DHT22;13191;47.472;11.214;2022-07-23T13:44:46;27.70;99.90
25248;DHT22;13191;47.472;11.214;2022-07-23T13:47:12;27.70;99.90
25248;DHT22;13191;47.472;11.214;2022-07-23T13:49:37;27.70;99.90
25248;DHT22;13191;47.472;11.214;2022-07-23T13:52:03;27.70;99.90
25248;DHT22;13191;47.472;11.214;2022-07-23T13:54:29;27.80;99.90
25248;DHT22;13191;47.472;11.214;2022-07-23T13:56:57;27.90;99.90
25248;DHT22;13191;47.472;11.214;2022-07-23T13:59:25;27.80;99.90
25248;DHT22;13191;47.472;11.214;2022-07-23T14:01:51;27.80;99.90
25248;DHT22;13191;47.472;11.214;2022-07-23T14:04:17;27.80;99.90
25248;DHT22;13191;47.472;11.214;2022-07-23T14:06:42;27.90;99.90
25248;DHT22;13191;47.472;11.214;2022-07-23T14:09:08;28.00;99.90
25248;DHT22;13191;47.472;11.214;2022-07-23T14:11:33;28.10;99.90
25248;DHT22;13191;47.472;11.214;2022-07-23T14:13:59;28.20;99.90
25248;DHT22;13191;47.472;11.214;2022-07-23T14:16:26;28.20;99.90
25248;DHT22;13191;47.472;11.214;2022-07-23T14:18:51;28.30;99.90
25248;DHT22;13191;47.472;11.214;2022-07-23T14:21:17;28.30;99.90
25248;DHT22;13191;47.472;11.214;2022-07-23T14:23:42;28.20;99.90
25248;DHT22;13191;47.472;11.214;2022-07-23T14:26:08;28.20;99.90
25248;DHT22;13191;47.472;11.214;2022-07-23T14:28:34;28.10;99.90
25248;DHT22;13191;47.472;11.214;2022-07-23T14:30:59;28.20;99.90
25248;DHT22;13191;47.472;11.214;2022-07-23T14:33:25;28.20;99.90
25248;DHT22;13191;47.472;11.214;2022-07-23T14:35:51;28.20;99.90
25248;DHT22;13191;47.472;11.214;2022-07-23T14:38:16;28.20;99.90
25248;DHT22;13191;47.472;11.214;2022-07-23T14:40:42;28.20;99.90
25248;DHT22;13191;47.472;11.214;2022-07-23T14:43:08;28.20;99.90
25248;DHT22;13191;47.472;11.214;2022-07-23T14:45:34;28.30;99.90
25248;DHT22;13191;47.472;11.214;2022-07-23T14:48:00;28.40;99.90
25248;DHT22;13191;47.472;11.214;2022-07-23T14:50:27;28.50;99.90
25248;DHT22;13191;47.472;11.214;2022-07-23T14:52:53;28.50;99.90
25248;DHT22;13191;47.472;11.214;2022-07-23T14:55:19;28.40;99.90
25248;DHT22;13191;47.472;11.214;2022-07-23T14:57:45;28.30;99.90
25248;DHT22;13191;47.472;11.214;2022-07-23T15:00:11;28.20;99.90
25248;DHT22;13191;47.472;11.214;2022-07-23T15:02:37;28.00;99.90
25248;DHT22;13191;47.472;11.214;2022-07-23T15:05:03;27.90;99.90
25248;DHT22;13191;47.472;11.214;2022-07-23T15:09:59;27.60;99.90
25248;DHT22;13191;47.472;11.214;2022-07-23T15:12:25;27.40;99.90
25248;DHT22;13191;47.472;11.214;2022-07-23T15:14:50;27.30;99.90
25248;DHT22;13191;47.472;11.214;2022-07-23T15:17:16;27.10;99.90
25248;DHT22;13191;47.472;11.214;2022-07-23T15:19:42;26.80;99.90
25248;DHT22;13191;47.472;11.214;2022-07-23T15:22:07;26.50;99.90
25248;DHT22;13191;47.472;11.214;2022-07-23T15:24:33;26.30;99.90
25248;DHT22;13191;47.472;11.214;2022-07-23T15:26:59;26.20;99.90
25248;DHT22;13191;47.472;11.214;2022-07-23T15:29:24;26.10;99.90
25248;DHT22;13191;47.472;11.214;2022-07-23T15:31:50;26.00;99.90
25248;DHT22;13191;47.472;11.214;2022-07-23T15:34:15;25.80;99.90
25248;DHT22;13191;47.472;11.214;2022-07-23T15:36:41;25.70;99.90
25248;DHT22;13191;47.472;11.214;2022-07-23T15:39:07;25.40;99.90
25248;DHT22;13191;47.472;11.214;2022-07-23T15:41:33;25.20;99.90
25248;DHT22;13191;47.472;11.214;2022-07-23T15:43:59;25.10;99.90
25248;DHT22;13191;47.472;11.214;2022-07-23T15:46:25;25.00;99.90
25248;DHT22;13191;47.472;11.214;2022-07-23T15:48:51;24.80;99.90
25248;DHT22;13191;47.472;11.214;2022-07-23T15:51:18;24.80;99.90